Airport Name : Old Crow

Other Name : Old Crow

ICAO : CYOC

IATA : YOC

FAA :

Latitude : 67.570556

Longitude : -139.839167

Country : Canada

Local Date and Time : 01 Mar 2021 08:45

 

TAF (Terminal Aerodrome Forecast)

TAF CYOC 011438Z 0115/0201 07006KT P6SM FEW015 SCT030 OVC120 TEMPO 0115/0118 BKN030 OVC080 FM011800 05010KT P6SM BKN030 OVC100 TEMPO 0118/0201 5SM -SN RMK NXT FCST BY 011900Z

 

METAR (METeorological Aerodrome Report)

CYOC 011500Z 08010G16KT 20SM FEW017 SCT029 BKN096 M31/M35 A2979 RMK ST1SC3AC3 SLP130

CYOC 011400Z 07007KT 20SM FEW017 BKN031 OVC120 M31/M36 A2983 RMK ST1SC4AC3 PRESFR SLP146

CYOC 011300Z VRB02KT 20SM FEW017 BKN028 OVC110 M34/M38 A2988 RMK ST1SC4AS3 MOON DMLY VISBL SLP163

To Charter a Jet Click here.